"WATCHING THE WEATHER TO PROTECT LIFE AND PROPERTY"


Aviation
Satellite (InfraRed)


TNCA 271500Z 09018KT 9999 SCT019 30/24 Q1013 NOSIG
TNCB 271455Z 10018KT 070V140 9999 SCT020 30/24 Q1014
TNCC 271500Z AUTO 10015KT 9999 BKN020 29/24 Q1014 NOSIG
TNCM 271500Z 10011KT 060V130 9999 SCT014 29/23 Q1018 NOSIG RMK A3006